Time;durP1;ratioP1;P1;durP2;ratioP2;P2;SDS_P1;SDS_P2;PMS_P1;PMS_P2;Temp;Humidity;BMP_temperature;BMP_pressure;BME280_temperature;BME280_humidity;BME280_pressure;Samples;Min_cycle;Max_cycle;Signal;HPM_P1;HPM_P2
2022/08/04 00:01:10;;;;;;;6.22;4.10;;;21.60;99.90;;;;;;4936933;29;20556;-58
2022/08/04 00:03:56;;;;;;;7.57;4.65;;;21.50;99.90;;;;;;4987000;28;20045;-60
2022/08/04 00:07:03;;;;;;;8.63;5.07;;;21.50;99.90;;;;;;5000226;28;20607;-62
2022/08/04 00:09:41;;;;;;;5.63;4.22;;;21.40;99.90;;;;;;5001097;28;20036;-59
2022/08/04 00:12:10;;;;;;;10.00;5.30;;;21.40;99.90;;;;;;5005662;28;20044;-58
2022/08/04 00:14:45;;;;;;;6.45;4.90;;;21.40;99.90;;;;;;5003648;28;20076;-60
2022/08/04 00:17:11;;;;;;;6.72;5.10;;;21.30;99.90;;;;;;5008970;28;20428;-60
2022/08/04 00:19:46;;;;;;;9.23;5.63;;;21.30;99.90;;;;;;5008882;28;20059;-61
2022/08/04 00:22:14;;;;;;;8.65;4.75;;;21.30;99.90;;;;;;5008179;28;20026;-61
2022/08/04 00:24:40;;;;;;;7.13;5.43;;;21.30;99.90;;;;;;5006874;28;20026;-61
2022/08/04 00:27:07;;;;;;;8.60;4.75;;;21.20;99.90;;;;;;5008111;28;20102;-61
2022/08/04 00:29:34;;;;;;;6.75;4.85;;;21.20;99.90;;;;;;5008579;28;20101;-61
2022/08/04 00:32:01;;;;;;;5.43;4.32;;;21.20;99.90;;;;;;5007729;28;20033;-61
2022/08/04 00:34:28;;;;;;;6.55;4.88;;;21.20;99.90;;;;;;5001927;28;20113;-60
2022/08/04 00:36:55;;;;;;;8.45;4.28;;;21.20;99.90;;;;;;5008517;28;20104;-60
2022/08/04 00:39:21;;;;;;;8.88;5.07;;;21.20;99.90;;;;;;5003743;28;20032;-59
2022/08/04 00:41:50;;;;;;;6.50;4.18;;;21.20;99.90;;;;;;5004551;28;20022;-57
2022/08/04 00:44:46;;;;;;;6.53;4.25;;;21.20;99.90;;;;;;5007779;28;20026;-61
2022/08/04 00:47:33;;;;;;;6.82;4.88;;;21.20;99.90;;;;;;5008478;28;20022;-57
2022/08/04 00:50:16;;;;;;;5.72;4.25;;;21.20;99.90;;;;;;5008276;28;20476;-59
2022/08/04 00:53:12;;;;;;;9.00;3.90;;;21.10;99.90;;;;;;5007015;28;20140;-61
2022/08/04 00:56:07;;;;;;;5.32;4.30;;;21.10;99.90;;;;;;5008340;28;20419;-60
2022/08/04 00:59:02;;;;;;;9.43;4.20;;;21.10;99.90;;;;;;4998395;28;20175;-60
2022/08/04 01:01:57;;;;;;;6.28;3.88;;;21.10;99.90;;;;;;4956068;28;20038;-62
2022/08/04 01:04:28;;;;;;;9.75;3.83;;;21.00;99.90;;;;;;4998121;28;20476;-62
2022/08/04 01:07:30;;;;;;;6.47;3.88;;;21.00;99.90;;;;;;5008427;28;20362;-59
2022/08/04 01:10:02;;;;;;;4.07;3.10;;;21.00;99.90;;;;;;5006111;28;20033;-60
2022/08/04 01:12:51;;;;;;;5.82;3.63;;;21.00;99.90;;;;;;5007579;28;20029;-62
2022/08/04 01:15:29;;;;;;;4.47;3.05;;;21.00;99.90;;;;;;5008186;28;20044;-62
2022/08/04 01:18:00;;;;;;;5.63;3.22;;;21.00;99.90;;;;;;5004109;28;20022;-63
2022/08/04 01:20:32;;;;;;;4.45;3.35;;;20.90;99.90;;;;;;5007978;28;20041;-62
2022/08/04 01:23:09;;;;;;;5.20;3.78;;;20.90;99.90;;;;;;5007154;28;20538;-62
2022/08/04 01:25:49;;;;;;;4.85;3.20;;;20.90;99.90;;;;;;5008451;28;20040;-59
2022/08/04 01:28:35;;;;;;;7.63;3.67;;;20.90;99.90;;;;;;5003019;28;20089;-61
2022/08/04 01:31:29;;;;;;;4.75;3.17;;;20.90;99.90;;;;;;4988874;28;20121;-61
2022/08/04 01:33:59;;;;;;;6.40;3.33;;;20.90;99.90;;;;;;5006468;28;20029;-61
2022/08/04 01:36:26;;;;;;;5.63;3.78;;;20.80;99.90;;;;;;5008565;28;20033;-60
2022/08/04 01:38:53;;;;;;;5.65;3.35;;;20.80;99.90;;;;;;5010864;28;20037;-61
2022/08/04 01:41:21;;;;;;;7.80;3.35;;;20.80;99.90;;;;;;5012005;28;20397;-59
2022/08/04 01:43:46;;;;;;;5.70;2.92;;;20.80;99.90;;;;;;5010716;28;20412;-60
2022/08/04 01:46:14;;;;;;;6.38;3.38;;;20.80;99.90;;;;;;4991081;28;20032;-60
2022/08/04 01:48:44;;;;;;;5.30;3.25;;;20.80;99.90;;;;;;5012770;28;20026;-61
2022/08/04 01:51:10;;;;;;;3.85;2.80;;;20.70;99.90;;;;;;5011754;28;20037;-62
2022/08/04 01:53:38;;;;;;;5.05;2.67;;;20.70;99.90;;;;;;5005990;28;20076;-61
2022/08/04 01:56:05;;;;;;;5.45;3.03;;;20.70;99.90;;;;;;5012277;28;20068;-61
2022/08/04 01:58:32;;;;;;;3.70;2.92;;;20.70;99.90;;;;;;5012030;28;20057;-62
2022/08/04 02:01:05;;;;;;;3.10;2.70;;;20.70;99.90;;;;;;5011325;28;20030;-60
2022/08/04 02:03:32;;;;;;;5.28;2.40;;;20.60;99.90;;;;;;5010294;28;20044;-61
2022/08/04 02:06:46;;;;;;;6.63;3.20;;;20.60;99.90;;;;;;5010754;28;20360;-60
2022/08/04 02:09:19;;;;;;;5.25;2.72;;;20.60;99.90;;;;;;4993052;28;20121;-62
2022/08/04 02:14:44;;;;;;;4.20;3.20;;;20.50;99.90;;;;;;5051262;22;20515;-61
2022/08/04 02:17:17;;;;;;;6.53;2.67;;;20.50;99.90;;;;;;5030270;28;20021;-62
2022/08/04 02:20:01;;;;;;;4.75;2.88;;;20.50;99.90;;;;;;5023333;28;20120;-60
2022/08/04 02:22:27;;;;;;;5.75;4.75;;;20.50;99.90;;;;;;5003232;28;20032;-60
2022/08/04 02:25:02;;;;;;;9.52;6.03;;;20.50;99.90;;;;;;5012796;28;20025;-60
2022/08/04 02:27:53;;;;;;;7.18;6.25;;;20.50;99.90;;;;;;5023966;28;20549;-61
2022/08/04 02:30:20;;;;;;;7.93;6.43;;;20.50;99.90;;;;;;5011816;28;20611;-61
2022/08/04 02:32:49;;;;;;;11.93;6.68;;;20.50;99.90;;;;;;5012176;28;20061;-60
2022/08/04 02:35:22;;;;;;;8.70;6.60;;;20.50;99.90;;;;;;5021907;28;20116;-60
2022/08/04 02:38:10;;;;;;;10.70;7.00;;;20.40;99.90;;;;;;5029771;28;20040;-59
2022/08/04 02:40:38;;;;;;;8.80;6.10;;;20.40;99.90;;;;;;5026736;28;20150;-61
2022/08/04 02:43:07;;;;;;;7.18;6.00;;;20.40;99.90;;;;;;5024738;28;20025;-61
2022/08/04 02:45:36;;;;;;;11.02;6.00;;;20.40;99.90;;;;;;5006621;28;20032;-60
2022/08/04 02:48:04;;;;;;;10.32;5.78;;;20.40;99.90;;;;;;5029797;28;20151;-58
2022/08/04 02:50:34;;;;;;;8.10;5.05;;;20.40;99.90;;;;;;5010389;28;20388;-60
2022/08/04 02:53:03;;;;;;;6.40;4.88;;;20.30;99.90;;;;;;5009872;28;20045;-58
2022/08/04 02:55:29;;;;;;;7.63;5.28;;;20.30;99.90;;;;;;5030126;28;20025;-61
2022/08/04 02:57:57;;;;;;;9.60;5.32;;;20.30;99.90;;;;;;5029451;28;20121;-59
2022/08/04 03:00:23;;;;;;;7.30;4.63;;;20.30;99.90;;;;;;5026055;28;20014;-61
2022/08/04 03:02:54;;;;;;;6.00;4.45;;;20.30;99.90;;;;;;5029121;28;20092;-60
2022/08/04 03:05:32;;;;;;;9.25;5.70;;;20.30;99.90;;;;;;5019376;28;20026;-59
2022/08/04 03:08:41;;;;;;;8.60;5.85;;;20.30;99.90;;;;;;5020932;28;20029;-59
2022/08/04 03:11:32;;;;;;;10.23;7.28;;;20.30;99.90;;;;;;5011067;28;20124;-60
2022/08/04 03:14:33;;;;;;;11.07;7.05;;;20.20;99.90;;;;;;5028084;28;20040;-61
2022/08/04 03:17:17;;;;;;;11.05;6.40;;;20.30;99.90;;;;;;4982494;28;20037;-59
2022/08/04 03:20:11;;;;;;;8.68;5.75;;;20.20;99.90;;;;;;5025287;28;20025;-59
2022/08/04 03:22:45;;;;;;;6.97;4.72;;;20.20;99.90;;;;;;5028685;28;20025;-60
2022/08/04 03:25:13;;;;;;;7.00;4.85;;;20.20;99.90;;;;;;5022819;28;20029;-60
2022/08/04 03:27:54;;;;;;;8.93;3.97;;;20.20;99.90;;;;;;5029352;28;20044;-59
2022/08/04 03:30:48;;;;;;;8.90;4.25;;;20.20;99.90;;;;;;5028596;28;20028;-61
2022/08/04 03:33:44;;;;;;;7.88;3.67;;;20.20;99.90;;;;;;5028460;28;20018;-60
2022/08/04 03:36:35;;;;;;;8.00;4.03;;;20.20;99.90;;;;;;5002580;28;20147;-61
2022/08/04 03:39:25;;;;;;;5.15;4.05;;;20.20;99.90;;;;;;5008024;28;20452;-61
2022/08/04 03:42:07;;;;;;;5.03;3.88;;;20.10;99.90;;;;;;5018794;28;20044;-60
2022/08/04 03:44:54;;;;;;;4.53;3.00;;;20.20;99.90;;;;;;5023077;28;20488;-60
2022/08/04 03:47:57;;;;;;;5.90;3.60;;;20.10;99.90;;;;;;5026201;28;20029;-60
2022/08/04 03:53:07;;;;;;;5.30;3.80;;;20.10;99.90;;;;;;5026962;28;20025;-61
2022/08/04 03:54:02;;;;;;;4.00;3.22;;;20.10;99.90;;;;;;5027134;28;20034;-61
2022/08/04 03:56:52;;;;;;;4.15;2.85;;;20.10;99.90;;;;;;5022414;28;20028;-60
2022/08/04 03:59:59;;;;;;;5.32;3.63;;;20.10;99.90;;;;;;5010176;28;20029;-61
2022/08/04 04:03:19;;;;;;;4.78;3.00;;;20.10;99.90;;;;;;4960922;28;20521;-61
2022/08/04 04:06:10;;;;;;;5.40;3.28;;;20.00;99.90;;;;;;4920736;28;20779;-61
2022/08/04 04:09:00;;;;;;;4.22;3.10;;;20.00;99.90;;;;;;5006422;28;20029;-61
2022/08/04 04:12:00;;;;;;;6.75;3.72;;;20.00;99.90;;;;;;5025718;28;20042;-61
2022/08/04 04:14:56;;;;;;;5.03;3.88;;;20.00;99.90;;;;;;5022944;28;20378;-62
2022/08/04 04:17:43;;;;;;;6.57;3.30;;;20.00;99.90;;;;;;5024136;28;20722;-60
2022/08/04 04:20:20;;;;;;;4.47;3.17;;;20.00;99.90;;;;;;5027592;28;20041;-61
2022/08/04 04:23:08;;;;;;;4.35;3.35;;;20.00;99.90;;;;;;5006972;28;20122;-61
2022/08/04 04:25:41;;;;;;;4.90;3.22;;;20.00;99.90;;;;;;5022845;28;20033;-61
2022/08/04 04:28:58;;;;;;;7.15;3.63;;;20.00;99.90;;;;;;5027918;28;20388;-60
2022/08/04 04:31:32;;;;;;;5.43;3.00;;;20.00;99.90;;;;;;4984992;28;20030;-62
2022/08/04 04:34:15;;;;;;;5.28;3.08;;;20.00;99.90;;;;;;5027764;28;20125;-61
2022/08/04 04:37:42;;;;;;;4.28;2.88;;;20.00;99.90;;;;;;5023252;28;20075;-62
2022/08/04 04:40:25;;;;;;;3.35;2.97;;;20.00;99.90;;;;;;4984936;28;20054;-61
2022/08/04 04:43:00;;;;;;;5.15;3.03;;;20.00;99.90;;;;;;5022097;28;20021;-61
2022/08/04 04:45:37;;;;;;;3.25;2.58;;;20.00;99.90;;;;;;5023375;28;20026;-61
2022/08/04 04:48:24;;;;;;;3.92;3.20;;;20.00;99.90;;;;;;5008631;28;20037;-60
2022/08/04 04:51:05;;;;;;;5.05;2.75;;;20.00;99.90;;;;;;5006845;28;20033;-61
2022/08/04 04:53:52;;;;;;;3.03;2.72;;;20.10;99.90;;;;;;5023565;28;20106;-60
2022/08/04 04:56:44;;;;;;;7.38;3.00;;;20.10;99.90;;;;;;5008950;28;20029;-61
2022/08/04 04:59:15;;;;;;;3.55;2.20;;;20.10;99.90;;;;;;5027909;28;20499;-60
2022/08/04 05:02:18;;;;;;;6.45;3.15;;;20.10;99.90;;;;;;5008506;28;20083;-61
2022/08/04 05:04:46;;;;;;;5.07;2.63;;;20.10;99.90;;;;;;5008825;28;20026;-62
2022/08/04 05:07:57;;;;;;;4.55;2.53;;;20.10;99.90;;;;;;5028177;28;20288;-62
2022/08/04 05:10:39;;;;;;;5.03;2.85;;;20.20;99.90;;;;;;5003507;28;20441;-62
2022/08/04 05:13:08;;;;;;;4.47;2.60;;;20.30;99.90;;;;;;5027432;28;20115;-61
2022/08/04 05:15:37;;;;;;;4.50;2.75;;;20.30;99.90;;;;;;5031792;28;20029;-62
2022/08/04 05:18:06;;;;;;;3.40;2.63;;;20.30;99.90;;;;;;5022710;28;20037;-62
2022/08/04 05:20:40;;;;;;;2.47;2.28;;;20.30;99.90;;;;;;5029476;28;20124;-61
2022/08/04 05:23:18;;;;;;;4.40;2.97;;;20.40;99.90;;;;;;5030709;28;20033;-62
2022/08/04 05:25:48;;;;;;;6.90;2.65;;;20.50;99.90;;;;;;5031226;28;20068;-62
2022/08/04 05:28:25;;;;;;;10.65;2.50;;;20.50;99.90;;;;;;5012876;28;20018;-61
2022/08/04 05:31:00;;;;;;;5.32;3.17;;;20.60;99.90;;;;;;5030877;28;20065;-61
2022/08/04 05:33:33;;;;;;;3.40;2.13;;;20.70;99.90;;;;;;5009565;28;20055;-62
2022/08/04 05:36:05;;;;;;;5.00;2.30;;;20.80;99.90;;;;;;5030980;28;20025;-62
2022/08/04 05:38:36;;;;;;;2.97;2.60;;;20.80;99.90;;;;;;5013024;28;20159;-61
2022/08/04 05:41:03;;;;;;;4.35;2.58;;;20.90;99.90;;;;;;5011381;28;20097;-61
2022/08/04 05:43:30;;;;;;;5.05;2.60;;;21.00;99.90;;;;;;5017684;28;20102;-62
2022/08/04 05:45:57;;;;;;;5.03;2.22;;;21.10;99.90;;;;;;5027603;28;20017;-61
2022/08/04 05:48:23;;;;;;;3.72;2.30;;;21.20;99.90;;;;;;5024242;28;20017;-60
2022/08/04 05:50:50;;;;;;;5.60;2.55;;;21.20;99.90;;;;;;5030312;28;20759;-61
2022/08/04 05:53:17;;;;;;;2.85;2.22;;;21.30;99.90;;;;;;5028856;28;20103;-61
2022/08/04 05:55:44;;;;;;;3.30;2.78;;;21.40;99.90;;;;;;5030717;28;20511;-61
2022/08/04 05:58:12;;;;;;;4.60;2.60;;;21.50;99.90;;;;;;5013492;28;20029;-61
2022/08/04 06:00:40;;;;;;;3.88;2.20;;;21.70;99.90;;;;;;5030162;28;20021;-60
2022/08/04 06:03:08;;;;;;;5.90;2.67;;;21.80;99.90;;;;;;5025894;28;20026;-62
2022/08/04 06:05:35;;;;;;;5.32;2.40;;;21.90;99.90;;;;;;5030660;28;20399;-61
2022/08/04 06:08:01;;;;;;;4.07;1.98;;;22.00;99.90;;;;;;5026200;28;20033;-61
2022/08/04 06:10:27;;;;;;;3.72;2.30;;;22.10;99.90;;;;;;5012467;28;20026;-63
2022/08/04 06:12:57;;;;;;;4.85;2.58;;;22.20;99.90;;;;;;5029625;28;20091;-62
2022/08/04 06:15:25;;;;;;;2.80;2.22;;;22.30;99.90;;;;;;5029413;28;20407;-61
2022/08/04 06:18:08;;;;;;;7.10;2.55;;;22.40;99.90;;;;;;5012307;28;20083;-62
2022/08/04 06:20:37;;;;;;;5.88;2.80;;;22.60;99.90;;;;;;5030181;28;20037;-62
2022/08/04 06:23:07;;;;;;;4.15;2.70;;;22.70;99.90;;;;;;5003143;28;20034;-61
2022/08/04 06:25:41;;;;;;;2.28;1.85;;;22.80;99.90;;;;;;5006825;28;20198;-61
2022/08/04 06:28:08;;;;;;;5.13;2.58;;;22.90;99.90;;;;;;5001743;28;20140;-61
2022/08/04 06:30:35;;;;;;;3.90;2.38;;;23.10;99.90;;;;;;5028482;28;20103;-58
2022/08/04 06:33:12;;;;;;;2.22;1.83;;;23.20;99.90;;;;;;5010941;28;20116;-62
2022/08/04 06:35:38;;;;;;;5.93;2.63;;;23.30;99.90;;;;;;5025711;28;20439;-62
2022/08/04 06:38:04;;;;;;;2.90;2.53;;;23.50;99.90;;;;;;5030066;28;20041;-62
2022/08/04 06:40:31;;;;;;;3.72;2.22;;;23.60;99.90;;;;;;5030108;28;20025;-60
2022/08/04 06:42:58;;;;;;;2.72;1.92;;;23.70;99.90;;;;;;5028567;28;20104;-61
2022/08/04 06:45:24;;;;;;;5.18;2.72;;;23.90;99.90;;;;;;5012931;28;20094;-61
2022/08/04 06:47:50;;;;;;;5.13;2.35;;;24.00;99.90;;;;;;5029504;28;20504;-59
2022/08/04 06:50:16;;;;;;;4.00;1.98;;;24.20;99.90;;;;;;5028820;28;20020;-60
2022/08/04 06:52:44;;;;;;;3.58;2.13;;;24.20;99.90;;;;;;5027756;28;20092;-61
2022/08/04 06:55:10;;;;;;;5.35;2.05;;;24.40;99.90;;;;;;5029691;28;20056;-62
2022/08/04 06:57:36;;;;;;;5.22;1.67;;;24.60;99.90;;;;;;5029997;28;20026;-61
2022/08/04 07:00:06;;;;;;;2.60;1.60;;;24.70;99.90;;;;;;5030055;28;20017;-61
2022/08/04 07:02:37;;;;;;;5.70;3.63;;;24.80;99.90;;;;;;5028397;28;20049;-60
2022/08/04 07:05:06;;;;;;;6.13;2.33;;;25.00;99.90;;;;;;5029966;28;20013;-61
2022/08/04 07:07:32;;;;;;;3.28;1.67;;;25.20;99.90;;;;;;5030143;28;20017;-61
2022/08/04 07:10:00;;;;;;;4.85;2.30;;;25.30;99.90;;;;;;5029343;28;20037;-61
2022/08/04 07:12:27;;;;;;;4.28;2.10;;;25.40;99.90;;;;;;5011119;28;20052;-61
2022/08/04 07:14:53;;;;;;;6.00;2.45;;;25.70;99.90;;;;;;5029813;28;20502;-62
2022/08/04 07:17:20;;;;;;;5.95;2.10;;;25.80;99.90;;;;;;5025498;28;20058;-61
2022/08/04 07:19:46;;;;;;;6.50;2.47;;;26.00;99.90;;;;;;5025992;28;20061;-61
2022/08/04 07:22:12;;;;;;;3.55;2.17;;;26.10;99.90;;;;;;5028482;28;20052;-61
2022/08/04 07:24:38;;;;;;;3.55;2.03;;;26.30;99.90;;;;;;5029137;28;20064;-62
2022/08/04 07:27:05;;;;;;;4.53;2.15;;;26.40;99.90;;;;;;5009440;28;20087;-61
2022/08/04 07:29:33;;;;;;;5.65;1.98;;;26.60;99.90;;;;;;5022838;28;20087;-61
2022/08/04 07:31:59;;;;;;;4.22;2.00;;;26.70;99.90;;;;;;5010782;28;20025;-61
2022/08/04 07:34:25;;;;;;;3.95;1.60;;;26.70;99.90;;;;;;5029801;28;20543;-62
2022/08/04 07:36:53;;;;;;;5.15;2.17;;;26.70;99.90;;;;;;5026638;28;20025;-60
2022/08/04 07:39:20;;;;;;;2.72;1.83;;;26.60;99.90;;;;;;5028943;28;20029;-61
2022/08/04 07:41:46;;;;;;;4.20;2.05;;;26.60;99.90;;;;;;5028353;28;20018;-61
2022/08/04 07:44:14;;;;;;;6.45;2.08;;;26.70;99.90;;;;;;5028756;28;20021;-59
2022/08/04 07:46:40;;;;;;;2.90;1.90;;;26.90;99.90;;;;;;5028401;28;20036;-61
2022/08/04 07:49:07;;;;;;;4.40;1.98;;;27.20;99.90;;;;;;5010982;28;20108;-61
2022/08/04 07:51:35;;;;;;;7.47;2.28;;;27.40;99.90;;;;;;5009139;28;20395;-62
2022/08/04 07:54:04;;;;;;;6.15;1.80;;;27.70;99.90;;;;;;5027980;28;20017;-61
2022/08/04 07:56:32;;;;;;;4.40;2.15;;;27.90;99.90;;;;;;5029315;28;20033;-62
2022/08/04 07:58:59;;;;;;;4.78;1.77;;;28.20;99.90;;;;;;5024118;28;20376;-60
2022/08/04 08:01:25;;;;;;;9.05;2.20;;;28.40;99.90;;;;;;5027852;28;20029;-61
2022/08/04 08:03:54;;;;;;;4.20;1.90;;;28.60;99.90;;;;;;5011130;28;20067;-59
2022/08/04 08:06:21;;;;;;;4.40;1.95;;;28.80;99.90;;;;;;5011158;28;20684;-61
2022/08/04 08:08:46;;;;;;;3.65;1.33;;;29.00;99.30;;;;;;5028680;28;20096;-63
2022/08/04 08:11:12;;;;;;;6.45;2.15;;;29.20;99.60;;;;;;5028042;28;20108;-62
2022/08/04 08:13:38;;;;;;;2.95;1.98;;;29.40;99.00;;;;;;5050303;22;20041;-58
2022/08/04 08:16:04;;;;;;;5.28;2.10;;;29.60;98.50;;;;;;5028672;28;20021;-57
2022/08/04 08:18:30;;;;;;;3.30;2.03;;;29.70;99.40;;;;;;5028774;28;20048;-60
2022/08/04 08:20:57;;;;;;;3.92;1.88;;;29.80;98.90;;;;;;5029043;28;20064;-57
2022/08/04 08:23:24;;;;;;;6.75;1.80;;;29.80;98.40;;;;;;5027502;28;20018;-57
2022/08/04 08:25:50;;;;;;;3.65;1.65;;;30.00;96.90;;;;;;5028602;28;20036;-56
2022/08/04 08:28:16;;;;;;;4.15;1.77;;;30.20;97.60;;;;;;5029113;28;20021;-58
2022/08/04 08:30:42;;;;;;;7.20;2.00;;;30.40;96.90;;;;;;5028412;28;20025;-56
2022/08/04 08:33:12;;;;;;;3.10;1.88;;;30.60;96.80;;;;;;5027901;28;20025;-58
2022/08/04 08:35:43;;;;;;;3.55;1.70;;;30.80;95.90;;;;;;5028210;28;20030;-59
2022/08/04 08:38:12;;;;;;;5.95;1.90;;;30.90;96.30;;;;;;5028472;28;21327;-58
2022/08/04 08:40:52;;;;;;;2.15;1.65;;;30.80;95.30;;;;;;5025696;28;20041;-58
2022/08/04 08:44:03;;;;;;;4.90;2.00;;;30.90;95.80;;;;;;5020116;28;20025;-59
2022/08/04 08:47:03;;;;;;;3.75;1.73;;;31.00;96.30;;;;;;4984102;28;20065;-59
2022/08/04 08:49:37;;;;;;;4.57;1.98;;;31.10;94.90;;;;;;5030125;28;20021;-58
2022/08/04 08:52:34;;;;;;;3.92;1.95;;;31.20;94.50;;;;;;5010690;28;20025;-59
2022/08/04 08:55:27;;;;;;;3.13;1.75;;;31.30;94.20;;;;;;5023437;28;20381;-59
2022/08/04 08:58:14;;;;;;;4.25;2.00;;;31.40;94.10;;;;;;5032145;28;20049;-55
2022/08/04 09:01:05;;;;;;;3.50;1.65;;;31.40;93.00;;;;;;5032268;28;20079;-58
2022/08/04 09:03:52;;;;;;;3.42;1.80;;;31.40;94.00;;;;;;5029596;28;20480;-58
2022/08/04 09:06:36;;;;;;;3.42;1.50;;;31.50;93.20;;;;;;5028634;28;20033;-57
2022/08/04 09:09:33;;;;;;;3.38;1.70;;;31.70;94.00;;;;;;5030075;28;20060;-56
2022/08/04 09:12:28;;;;;;;1.85;1.30;;;31.80;93.20;;;;;;5029145;28;20029;-57
2022/08/04 09:15:01;;;;;;;2.72;1.80;;;32.10;93.20;;;;;;5031122;28;20492;-57
2022/08/04 09:17:47;;;;;;;5.10;2.15;;;32.20;92.40;;;;;;5031491;28;20060;-57
2022/08/04 09:20:47;;;;;;;4.18;1.75;;;32.40;92.40;;;;;;5030561;28;20056;-56
2022/08/04 09:23:22;;;;;;;2.08;1.58;;;32.50;90.40;;;;;;4982312;28;20457;-56
2022/08/04 09:25:55;;;;;;;2.28;1.90;;;32.50;90.40;;;;;;5032023;28;20484;-59
2022/08/04 09:28:28;;;;;;;1.70;1.52;;;32.50;90.40;;;;;;5028482;28;20129;-56
2022/08/04 09:31:02;;;;;;;2.20;1.70;;;32.50;89.90;;;;;;5013357;28;20076;-56
2022/08/04 09:33:31;;;;;;;5.00;2.15;;;32.60;89.50;;;;;;5029520;28;20028;-53
2022/08/04 09:36:03;;;;;;;2.75;1.75;;;32.70;89.90;;;;;;5031953;28;20196;-58
2022/08/04 09:38:47;;;;;;;2.35;1.75;;;32.80;86.90;;;;;;5030327;28;20438;-54
2022/08/04 09:41:42;;;;;;;3.75;1.75;;;32.80;87.80;;;;;;5031047;28;20017;-53
2022/08/04 09:44:13;;;;;;;4.00;1.88;;;32.90;86.30;;;;;;5031228;28;20025;-57
2022/08/04 09:47:12;;;;;;;4.88;1.80;;;33.00;85.70;;;;;;5031844;28;20024;-58
2022/08/04 09:49:49;;;;;;;3.55;1.90;;;33.10;85.30;;;;;;5020369;28;20037;-56
2022/08/04 09:52:51;;;;;;;2.40;1.77;;;33.10;83.90;;;;;;5024273;28;20028;-58
2022/08/04 09:55:33;;;;;;;3.22;1.77;;;33.20;82.30;;;;;;5023718;28;20547;-56
2022/08/04 09:58:08;;;;;;;3.80;2.08;;;33.20;81.80;;;;;;5031108;28;20025;-53
2022/08/04 10:00:42;;;;;;;2.00;1.90;;;33.20;81.10;;;;;;5030832;28;20562;-56
2022/08/04 10:03:11;;;;;;;3.55;1.85;;;33.20;82.30;;;;;;5030362;28;20026;-60
2022/08/04 10:06:08;;;;;;;2.25;1.88;;;33.30;79.30;;;;;;5031010;28;20039;-57
2022/08/04 10:08:55;;;;;;;2.58;2.38;;;33.30;79.60;;;;;;5025239;28;20032;-57
2022/08/04 10:11:42;;;;;;;2.65;2.00;;;33.40;79.10;;;;;;5029454;28;20491;-59
2022/08/04 10:14:39;;;;;;;2.17;1.77;;;33.40;76.70;;;;;;5027548;28;20041;-56
2022/08/04 10:17:33;;;;;;;2.95;2.00;;;33.40;77.10;;;;;;5009676;28;20025;-58
2022/08/04 10:20:18;;;;;;;1.92;1.65;;;33.50;77.90;;;;;;5029093;28;20475;-58
2022/08/04 10:23:01;;;;;;;3.58;1.90;;;33.70;74.90;;;;;;5029576;28;20452;-59
2022/08/04 10:25:38;;;;;;;2.53;1.80;;;33.80;76.80;;;;;;5029487;28;20092;-57
2022/08/04 10:28:07;;;;;;;4.15;1.67;;;33.80;75.10;;;;;;5020016;28;20125;-60
2022/08/04 10:30:37;;;;;;;4.97;1.95;;;33.70;74.40;;;;;;5030763;28;20022;-59
2022/08/04 10:33:26;;;;;;;2.45;1.90;;;33.70;73.70;;;;;;5027473;28;20086;-57
2022/08/04 10:35:59;;;;;;;3.10;2.35;;;33.50;73.60;;;;;;5026949;28;20033;-59
2022/08/04 10:38:36;;;;;;;2.45;1.95;;;33.50;73.80;;;;;;5028688;28;20053;-59
2022/08/04 10:41:20;;;;;;;2.13;1.92;;;33.50;75.00;;;;;;5027007;28;20550;-61
2022/08/04 10:43:58;;;;;;;2.75;2.05;;;33.50;74.80;;;;;;5029817;28;20029;-56
2022/08/04 10:46:30;;;;;;;1.88;1.65;;;33.40;75.90;;;;;;5027707;28;20083;-58
2022/08/04 10:49:02;;;;;;;2.42;1.90;;;33.20;76.00;;;;;;5029726;28;20040;-58
2022/08/04 10:51:46;;;;;;;2.22;2.08;;;33.10;77.80;;;;;;5011088;28;20025;-58
2022/08/04 10:54:44;;;;;;;3.78;2.10;;;33.20;77.70;;;;;;5021717;28;20483;-57
2022/08/04 10:57:27;;;;;;;3.58;2.20;;;33.30;77.80;;;;;;5025733;28;20164;-59
2022/08/04 10:59:59;;;;;;;6.47;2.63;;;33.40;77.00;;;;;;5023841;28;20026;-57
2022/08/04 11:03:02;;;;;;;2.35;1.98;;;33.50;77.60;;;;;;5027945;28;20025;-58
2022/08/04 11:05:38;;;;;;;5.78;2.17;;;33.60;75.60;;;;;;4998192;28;20024;-57
2022/08/04 11:08:10;;;;;;;5.57;2.10;;;33.70;75.30;;;;;;5028843;28;20023;-58
2022/08/04 11:10:54;;;;;;;2.30;2.10;;;33.80;76.10;;;;;;5026915;28;20095;-59
2022/08/04 11:13:23;;;;;;;2.10;1.90;;;33.90;76.80;;;;;;5021094;28;20045;-54
2022/08/04 11:15:54;;;;;;;4.00;2.75;;;33.90;75.60;;;;;;5017022;28;20033;-57
2022/08/04 11:18:46;;;;;;;3.08;1.80;;;33.90;74.50;;;;;;5022012;28;20025;-57
2022/08/04 11:21:21;;;;;;;3.33;2.03;;;33.90;74.20;;;;;;5025395;28;20099;-56
2022/08/04 11:23:53;;;;;;;;;;;33.90;74.00;;;;;;5029906;28;20041;-59
2022/08/04 11:26:28;;;;;;;2.45;2.10;;;34.10;75.00;;;;;;5022624;28;19940;-58
2022/08/04 11:29:03;;;;;;;5.00;2.50;;;34.10;71.70;;;;;;5029442;28;20025;-59
2022/08/04 11:31:34;;;;;;;3.00;2.08;;;34.20;74.00;;;;;;5021843;28;20029;-58
2022/08/04 11:34:20;;;;;;;2.47;2.28;;;34.20;71.00;;;;;;5029453;28;20029;-55
2022/08/04 11:37:09;;;;;;;2.65;2.08;;;34.20;71.60;;;;;;5029507;28;20045;-57
2022/08/04 11:39:41;;;;;;;3.75;2.08;;;34.20;70.90;;;;;;5018252;28;20415;-57
2022/08/04 11:42:19;;;;;;;3.65;2.30;;;34.30;70.70;;;;;;5016522;28;20026;-56
2022/08/04 11:44:51;;;;;;;3.00;2.35;;;34.20;70.10;;;;;;5027024;28;20502;-59
2022/08/04 11:47:32;;;;;;;3.03;2.00;;;34.20;69.10;;;;;;5028209;28;20044;-59
2022/08/04 11:50:07;;;;;;;2.25;2.08;;;34.20;69.30;;;;;;5028113;28;20156;-59
2022/08/04 11:52:36;;;;;;;4.13;2.47;;;34.20;69.20;;;;;;5024714;28;20033;-60
2022/08/04 11:55:07;;;;;;;3.97;2.70;;;34.20;70.80;;;;;;5007999;28;20025;-60
2022/08/04 11:57:33;;;;;;;2.47;2.28;;;34.30;70.20;;;;;;5027442;28;20037;-56
2022/08/04 12:00:01;;;;;;;3.50;2.15;;;34.40;69.20;;;;;;5025964;28;20041;-59
2022/08/04 12:02:36;;;;;;;2.72;2.17;;;34.40;69.20;;;;;;5027518;28;20033;-59
2022/08/04 12:05:04;;;;;;;2.08;1.92;;;34.30;68.60;;;;;;5026178;28;20492;-58
2022/08/04 12:07:49;;;;;;;2.33;2.13;;;34.30;70.10;;;;;;5028064;28;20056;-60
2022/08/04 12:10:46;;;;;;;2.80;1.80;;;34.20;68.60;;;;;;5026713;28;20128;-59
2022/08/04 12:13:11;;;;;;;3.05;2.15;;;34.10;66.40;;;;;;5008532;28;20436;-60
2022/08/04 12:16:02;;;;;;;3.35;2.10;;;34.10;67.70;;;;;;5028818;28;20100;-58
2022/08/04 12:18:48;;;;;;;3.15;2.00;;;34.00;67.90;;;;;;5027564;28;20029;-57
2022/08/04 12:21:39;;;;;;;2.03;1.85;;;33.90;68.40;;;;;;5019642;28;20072;-57
2022/08/04 12:24:15;;;;;;;2.47;2.28;;;33.90;67.10;;;;;;5027076;28;20384;-56
2022/08/04 12:26:49;;;;;;;2.88;2.00;;;34.00;69.80;;;;;;5028268;28;20022;-59
2022/08/04 12:29:17;;;;;;;4.57;2.17;;;34.10;65.70;;;;;;5026699;28;20021;-58
2022/08/04 12:31:48;;;;;;;3.22;1.92;;;34.20;66.70;;;;;;5027313;28;20030;-58
2022/08/04 12:34:29;;;;;;;2.65;1.92;;;34.40;66.90;;;;;;5025241;28;20520;-59
2022/08/04 12:37:10;;;;;;;2.10;2.00;;;34.60;65.90;;;;;;5028679;28;20563;-60
2022/08/04 12:39:38;;;;;;;2.42;1.83;;;34.60;65.20;;;;;;5023194;28;20412;-59
2022/08/04 12:42:16;;;;;;;2.42;1.80;;;34.60;63.50;;;;;;5027006;28;20025;-60
2022/08/04 12:44:44;;;;;;;3.60;1.80;;;34.40;64.50;;;;;;5024150;28;20030;-54
2022/08/04 12:47:12;;;;;;;4.70;2.25;;;34.40;64.10;;;;;;5028583;28;20092;-58
2022/08/04 12:49:41;;;;;;;1.85;1.75;;;34.30;63.50;;;;;;5022791;28;20053;-56
2022/08/04 12:52:07;;;;;;;1.50;1.40;;;34.20;64.60;;;;;;5027715;28;20025;-54
2022/08/04 12:54:37;;;;;;;3.03;1.80;;;34.40;65.80;;;;;;5027587;28;20030;-58
2022/08/04 12:57:05;;;;;;;1.60;1.50;;;34.60;63.90;;;;;;5026095;28;20655;-56
2022/08/04 12:59:38;;;;;;;2.08;1.60;;;34.90;63.90;;;;;;5028291;28;20033;-56
2022/08/04 13:02:11;;;;;;;1.67;1.58;;;35.00;63.10;;;;;;5027119;28;20029;-59
2022/08/04 13:04:41;;;;;;;2.05;1.92;;;35.20;64.30;;;;;;5027968;28;20492;-57
2022/08/04 13:07:12;;;;;;;2.28;2.10;;;35.30;62.70;;;;;;5025428;28;20025;-56
2022/08/04 13:09:38;;;;;;;1.98;1.77;;;35.30;62.00;;;;;;5024941;28;20407;-57
2022/08/04 13:12:15;;;;;;;1.88;1.70;;;35.30;61.90;;;;;;5026554;28;20029;-58
2022/08/04 13:14:44;;;;;;;2.72;1.83;;;35.40;64.50;;;;;;5024523;28;20029;-57
2022/08/04 13:17:11;;;;;;;2.10;1.88;;;35.50;63.10;;;;;;5025741;28;20034;-58
2022/08/04 13:19:37;;;;;;;3.85;2.15;;;35.70;63.00;;;;;;5028270;28;20109;-57
2022/08/04 13:22:03;;;;;;;4.35;1.92;;;35.70;61.30;;;;;;5027367;28;20022;-58
2022/08/04 13:24:31;;;;;;;3.30;1.85;;;35.60;61.00;;;;;;5023121;28;20025;-58
2022/08/04 13:27:01;;;;;;;2.22;2.03;;;35.40;61.60;;;;;;5027095;28;20531;-57
2022/08/04 13:29:51;;;;;;;2.25;2.10;;;35.20;62.20;;;;;;5028207;28;20037;-58
2022/08/04 13:32:22;;;;;;;2.45;1.95;;;35.30;62.10;;;;;;5001214;28;20463;-57
2022/08/04 13:34:50;;;;;;;2.95;1.92;;;35.40;63.20;;;;;;5019151;28;20488;-60
2022/08/04 13:37:19;;;;;;;2.00;1.90;;;35.50;62.30;;;;;;5023732;28;20403;-58
2022/08/04 13:39:48;;;;;;;2.28;2.10;;;35.70;62.60;;;;;;5032011;28;20112;-59